createdAt,value
2023-03-22T00:01:17.241Z,6.53
2023-03-22T00:03:47.637Z,7.03
2023-03-22T00:06:16.417Z,6.00
2023-03-22T00:08:44.460Z,6.50
2023-03-22T00:11:13.392Z,5.95
2023-03-22T00:13:43.017Z,6.93
2023-03-22T00:16:11.881Z,6.63
2023-03-22T00:18:39.923Z,7.20
2023-03-22T00:21:13.348Z,6.90
2023-03-22T00:23:41.546Z,6.80
2023-03-22T00:26:10.255Z,6.65
2023-03-22T00:28:38.693Z,6.03
2023-03-22T00:31:07.794Z,6.32
2023-03-22T00:33:35.692Z,7.22
2023-03-22T00:36:06.093Z,6.68
2023-03-22T00:38:42.919Z,6.72
2023-03-22T00:41:14.095Z,6.28
2023-03-22T00:43:42.490Z,6.53
2023-03-22T00:46:11.699Z,5.85
2023-03-22T00:48:39.903Z,6.18
2023-03-22T00:51:09.136Z,6.57
2023-03-22T00:53:41.092Z,6.60
2023-03-22T00:56:13.705Z,6.15
2023-03-22T00:58:41.703Z,5.95
2023-03-22T01:01:09.533Z,6.65
2023-03-22T01:03:38.755Z,6.10
2023-03-22T01:06:07.309Z,6.15
2023-03-22T01:08:39.172Z,6.32
2023-03-22T01:11:09.768Z,6.95
2023-03-22T01:13:38.509Z,6.45
2023-03-22T01:16:07.771Z,7.70
2023-03-22T01:18:36.433Z,7.80
2023-03-22T01:21:04.571Z,7.13
2023-03-22T01:23:32.700Z,7.50
2023-03-22T01:26:01.448Z,8.93
2023-03-22T01:28:30.821Z,8.48
2023-03-22T01:31:02.558Z,8.35
2023-03-22T01:33:30.401Z,9.38
2023-03-22T01:35:58.305Z,9.82
2023-03-22T01:38:26.200Z,9.75
2023-03-22T01:40:54.085Z,9.82
2023-03-22T01:43:22.278Z,9.43
2023-03-22T01:45:52.473Z,9.27
2023-03-22T01:48:25.917Z,8.25
2023-03-22T01:51:03.253Z,9.65
2023-03-22T01:53:35.718Z,8.38
2023-03-22T01:56:04.400Z,8.60
2023-03-22T01:58:34.816Z,8.90
2023-03-22T02:01:06.276Z,9.73
2023-03-22T02:03:42.250Z,8.25
2023-03-22T02:06:10.132Z,8.65
2023-03-22T02:08:40.573Z,8.95
2023-03-22T02:11:13.498Z,9.38
2023-03-22T02:13:56.988Z,9.35
2023-03-22T02:16:36.369Z,9.88
2023-03-22T02:19:31.743Z,8.63
2023-03-22T02:22:30.390Z,7.82
2023-03-22T02:25:27.665Z,7.57
2023-03-22T02:31:03.502Z,8.77
2023-03-22T02:33:50.413Z,8.18
2023-03-22T02:36:34.757Z,8.20
2023-03-22T02:39:17.784Z,7.88
2023-03-22T02:42:00.762Z,7.82
2023-03-22T02:44:39.663Z,8.35
2023-03-22T02:47:14.478Z,8.65
2023-03-22T02:49:49.430Z,7.88
2023-03-22T02:52:24.937Z,8.23
2023-03-22T02:54:58.676Z,7.93
2023-03-22T02:57:32.121Z,7.80
2023-03-22T03:00:02.466Z,8.65
2023-03-22T03:02:31.837Z,7.45
2023-03-22T03:05:00.798Z,8.60
2023-03-22T03:07:31.346Z,8.18
2023-03-22T03:10:01.208Z,8.40
2023-03-22T03:12:30.304Z,7.30
2023-03-22T03:14:58.504Z,7.65
2023-03-22T03:17:42.605Z,6.97
2023-03-22T03:20:24.235Z,7.38
2023-03-22T03:23:07.321Z,7.07
2023-03-22T03:25:43.355Z,6.97
2023-03-22T03:28:16.164Z,6.85
2023-03-22T03:30:51.430Z,6.47
2023-03-22T03:33:23.403Z,7.63
2023-03-22T03:35:56.275Z,6.78
2023-03-22T03:38:28.578Z,6.95
2023-03-22T03:41:01.809Z,7.25
2023-03-22T03:43:29.694Z,6.35
2023-03-22T03:45:58.401Z,6.45
2023-03-22T03:48:30.165Z,6.65
2023-03-22T03:51:00.503Z,6.18
2023-03-22T03:53:28.975Z,6.78
2023-03-22T03:55:58.257Z,6.00
2023-03-22T03:58:26.193Z,5.90
2023-03-22T04:00:54.339Z,5.85
2023-03-22T04:03:22.172Z,5.63
2023-03-22T04:05:50.018Z,5.20
2023-03-22T04:08:17.961Z,5.47
2023-03-22T04:10:50.692Z,5.50
2023-03-22T04:13:21.533Z,5.32
2023-03-22T04:15:53.144Z,5.68
2023-03-22T04:18:21.288Z,5.10
2023-03-22T04:20:49.560Z,5.35
2023-03-22T04:23:17.437Z,6.30
2023-03-22T04:25:50.065Z,5.07
2023-03-22T04:28:20.408Z,5.70
2023-03-22T04:30:51.066Z,5.43
2023-03-22T04:33:19.176Z,5.78
2023-03-22T04:35:47.278Z,5.22
2023-03-22T04:38:15.516Z,5.10
2023-03-22T04:40:46.578Z,5.85
2023-03-22T04:43:15.754Z,5.18
2023-03-22T04:45:46.199Z,5.63
2023-03-22T04:48:14.172Z,4.88
2023-03-22T04:50:42.205Z,5.60
2023-03-22T04:53:10.082Z,7.03
2023-03-22T04:55:37.932Z,5.18
2023-03-22T04:58:05.711Z,5.20
2023-03-22T05:00:33.675Z,5.85
2023-03-22T05:03:04.111Z,5.65
2023-03-22T05:05:32.003Z,5.63
2023-03-22T05:07:59.827Z,5.10
2023-03-22T05:10:27.595Z,5.50
2023-03-22T05:12:55.397Z,5.65
2023-03-22T05:15:23.350Z,5.53
2023-03-22T05:17:51.222Z,5.20
2023-03-22T05:20:20.427Z,5.20
2023-03-22T05:22:50.595Z,5.60
2023-03-22T05:25:18.583Z,5.25
2023-03-22T05:27:46.490Z,5.25
2023-03-22T05:30:15.591Z,5.60
2023-03-22T05:32:44.110Z,5.85
2023-03-22T05:35:12.148Z,5.45
2023-03-22T05:37:41.645Z,6.00
2023-03-22T05:40:10.897Z,5.43
2023-03-22T05:42:38.701Z,5.75
2023-03-22T05:45:07.483Z,5.65
2023-03-22T05:47:39.582Z,5.47
2023-03-22T05:50:09.176Z,6.15
2023-03-22T05:52:37.095Z,5.25
2023-03-22T05:55:07.553Z,5.20
2023-03-22T05:57:35.445Z,4.53
2023-03-22T06:00:06.372Z,5.05
2023-03-22T06:02:34.232Z,4.47
2023-03-22T06:05:02.146Z,4.32
2023-03-22T06:07:29.895Z,4.75
2023-03-22T06:09:57.827Z,4.05
2023-03-22T06:12:29.609Z,4.35
2023-03-22T06:14:57.950Z,3.80
2023-03-22T06:17:25.806Z,4.05
2023-03-22T06:19:54.423Z,4.07
2023-03-22T06:22:23.537Z,4.03
2023-03-22T06:24:51.343Z,4.07
2023-03-22T06:27:19.864Z,4.10
2023-03-22T06:29:51.021Z,4.07
2023-03-22T06:32:19.091Z,4.13
2023-03-22T06:34:47.032Z,4.15
2023-03-22T06:37:18.107Z,4.78
2023-03-22T06:39:46.163Z,4.20
2023-03-22T06:42:17.308Z,4.55
2023-03-22T06:44:45.238Z,4.43
2023-03-22T06:47:20.056Z,4.47
2023-03-22T06:49:47.790Z,4.80
2023-03-22T06:52:16.359Z,4.93
2023-03-22T06:54:44.490Z,4.95
2023-03-22T06:57:13.624Z,5.10
2023-03-22T06:59:42.085Z,4.88
2023-03-22T07:02:14.260Z,4.95
2023-03-22T07:04:43.951Z,4.65
2023-03-22T07:07:13.071Z,5.55
2023-03-22T07:09:41.591Z,5.38
2023-03-22T07:12:12.108Z,5.10
2023-03-22T07:14:43.549Z,5.10
2023-03-22T07:17:16.726Z,5.20
2023-03-22T07:19:45.913Z,5.68
2023-03-22T07:22:16.110Z,5.15
2023-03-22T07:24:55.729Z,5.38
2023-03-22T07:27:25.049Z,5.95
2023-03-22T07:29:52.839Z,5.85
2023-03-22T07:32:21.939Z,5.90
2023-03-22T07:34:51.185Z,5.53
2023-03-22T07:37:26.080Z,6.20
2023-03-22T07:39:53.982Z,6.50
2023-03-22T07:42:22.436Z,6.68
2023-03-22T07:44:51.148Z,6.65
2023-03-22T07:47:30.632Z,6.25
2023-03-22T07:50:04.045Z,6.78
2023-03-22T07:52:31.897Z,6.03
2023-03-22T07:54:59.646Z,6.97
2023-03-22T07:57:27.462Z,6.32
2023-03-22T07:59:56.601Z,7.30
2023-03-22T08:02:24.771Z,7.05
2023-03-22T08:04:56.413Z,6.68
2023-03-22T08:07:26.069Z,7.50
2023-03-22T08:09:54.011Z,7.10
2023-03-22T08:12:33.005Z,7.03
2023-03-22T08:15:01.670Z,7.18
2023-03-22T08:17:30.411Z,7.20
2023-03-22T08:19:58.307Z,7.70
2023-03-22T08:22:32.560Z,6.78
2023-03-22T08:25:00.421Z,6.60
2023-03-22T08:27:28.436Z,6.25
2023-03-22T08:29:56.535Z,7.13
2023-03-22T08:32:28.366Z,6.85
2023-03-22T08:34:56.224Z,6.78
2023-03-22T08:37:24.429Z,7.15
2023-03-22T08:39:53.670Z,6.95
2023-03-22T08:42:24.880Z,6.32
2023-03-22T08:44:53.107Z,7.22
2023-03-22T08:47:25.705Z,7.53
2023-03-22T08:49:53.611Z,7.13
2023-03-22T08:52:24.132Z,7.05
2023-03-22T08:54:54.516Z,7.40
2023-03-22T08:57:24.315Z,7.63
2023-03-22T08:59:52.368Z,7.85
2023-03-22T09:02:27.654Z,7.30
2023-03-22T09:04:55.767Z,7.20
2023-03-22T09:07:24.353Z,7.95
2023-03-22T09:09:53.758Z,7.70
2023-03-22T09:12:25.176Z,8.90
2023-03-22T09:14:53.826Z,9.00
2023-03-22T09:17:27.223Z,8.20
2023-03-22T09:20:09.446Z,8.63
2023-03-22T09:22:39.660Z,8.57
2023-03-22T09:25:12.531Z,8.15
2023-03-22T09:27:40.951Z,7.95
2023-03-22T09:30:09.768Z,8.05
2023-03-22T09:32:38.666Z,7.85
2023-03-22T09:35:07.216Z,7.70
2023-03-22T09:37:35.120Z,8.07
2023-03-22T09:40:05.454Z,7.82
2023-03-22T09:42:39.623Z,7.10
2023-03-22T09:45:13.449Z,7.72
2023-03-22T09:47:48.151Z,7.18
2023-03-22T09:50:20.849Z,6.75
2023-03-22T09:52:49.598Z,6.85
2023-03-22T09:55:23.989Z,6.35
2023-03-22T09:58:03.783Z,6.03
2023-03-22T10:00:41.585Z,5.80
2023-03-22T10:03:22.371Z,5.97
2023-03-22T10:05:54.065Z,5.40
2023-03-22T10:08:43.198Z,5.25
2023-03-22T10:11:23.080Z,3.85
2023-03-22T10:14:01.448Z,4.07
2023-03-22T10:16:33.163Z,4.22
2023-03-22T10:19:06.408Z,3.72
2023-03-22T10:21:34.763Z,3.80
2023-03-22T10:24:05.709Z,4.28
2023-03-22T10:26:37.984Z,3.85
2023-03-22T10:29:14.506Z,3.80
2023-03-22T10:31:45.994Z,3.83
2023-03-22T10:34:21.026Z,3.92
2023-03-22T10:36:51.194Z,4.00
2023-03-22T10:39:28.368Z,3.95
2023-03-22T10:41:58.218Z,3.78
2023-03-22T10:44:30.760Z,3.95
2023-03-22T10:47:07.420Z,4.70
2023-03-22T10:49:41.040Z,4.07
2023-03-22T10:52:25.092Z,3.75
2023-03-22T10:54:53.090Z,3.70
2023-03-22T10:57:24.177Z,3.65
2023-03-22T10:59:57.584Z,3.25
2023-03-22T11:02:43.743Z,3.35
2023-03-22T11:05:49.557Z,3.17
2023-03-22T11:08:19.448Z,2.97
2023-03-22T11:10:51.626Z,3.03
2023-03-22T11:13:24.340Z,2.75
2023-03-22T11:16:00.013Z,3.17
2023-03-22T11:18:32.533Z,2.72
2023-03-22T11:21:07.698Z,2.60
2023-03-22T11:23:38.728Z,2.53
2023-03-22T11:26:10.059Z,2.50
2023-03-22T11:28:44.314Z,2.17
2023-03-22T11:31:15.920Z,2.40
2023-03-22T11:33:56.272Z,2.13
2023-03-22T11:36:24.616Z,2.00
2023-03-22T11:38:58.635Z,2.33
2023-03-22T11:41:28.651Z,2.30
2023-03-22T11:43:59.412Z,2.10
2023-03-22T11:46:30.112Z,1.90
2023-03-22T11:49:01.284Z,2.95
2023-03-22T11:51:33.424Z,2.67
2023-03-22T11:54:09.199Z,2.75
2023-03-22T11:56:42.657Z,3.13
2023-03-22T11:59:16.662Z,3.10
2023-03-22T12:01:50.192Z,3.10
2023-03-22T12:04:22.535Z,3.13
2023-03-22T12:06:56.523Z,3.28
2023-03-22T12:09:29.587Z,3.63
2023-03-22T12:12:00.510Z,3.33
2023-03-22T12:14:34.096Z,3.65
2023-03-22T12:17:09.067Z,3.90
2023-03-22T12:19:51.214Z,3.95
2023-03-22T12:22:23.896Z,4.00
2023-03-22T12:24:51.789Z,4.15
2023-03-22T12:27:24.152Z,4.30
2023-03-22T12:29:57.959Z,4.00
2023-03-22T12:32:30.520Z,3.92
2023-03-22T12:35:15.952Z,3.75
2023-03-22T12:37:47.360Z,3.78
2023-03-22T12:40:22.824Z,3.67
2023-03-22T12:43:00.364Z,3.50
2023-03-22T12:45:33.264Z,3.63
2023-03-22T12:48:08.213Z,3.80
2023-03-22T12:50:43.415Z,3.60
2023-03-22T12:53:16.171Z,3.40
2023-03-22T12:55:46.604Z,3.38
2023-03-22T12:58:17.623Z,3.10
2023-03-22T13:00:49.491Z,3.50
2023-03-22T13:03:27.709Z,3.38
2023-03-22T13:06:05.687Z,3.13
2023-03-22T13:09:19.100Z,3.33
2023-03-22T13:11:49.382Z,2.97
2023-03-22T13:15:03.346Z,2.70
2023-03-22T13:17:43.873Z,3.00
2023-03-22T13:20:30.866Z,3.20
2023-03-22T13:23:28.632Z,2.88
2023-03-22T13:26:02.372Z,3.10
2023-03-22T13:28:37.017Z,2.95
2023-03-22T13:31:05.709Z,3.00
2023-03-22T13:33:35.701Z,2.70
2023-03-22T13:36:09.206Z,2.90
2023-03-22T13:38:42.336Z,2.50
2023-03-22T13:41:22.214Z,2.65
2023-03-22T13:43:53.101Z,2.58
2023-03-22T13:46:45.610Z,2.50
2023-03-22T13:49:21.680Z,1.90
2023-03-22T13:51:52.772Z,2.50
2023-03-22T13:54:24.892Z,2.17
2023-03-22T13:57:00.256Z,2.30
2023-03-22T13:59:33.895Z,2.40
2023-03-22T14:02:06.031Z,2.00
2023-03-22T14:04:40.742Z,2.25
2023-03-22T14:07:22.319Z,2.40
2023-03-22T14:09:52.588Z,2.00
2023-03-22T14:12:23.508Z,2.10
2023-03-22T14:14:56.111Z,1.98
2023-03-22T14:17:35.128Z,2.00
2023-03-22T14:20:10.579Z,1.92
